aviador You're here:

OINN Decoded Metar

NOSHAHR in IRAN
Report Time2017-08-24 03:00:00
UTC Time2017-08-24 03:11:11
Flight Rules vfr VFR
Wind190° at 04 kt
W.Decomp.*RWY 10: 0.3 kt HW 4.0 kt RCW
W.Rank190° ranks 11
Current wind is below 190° avg. (4.2)
Visibility9999 m
Phenomena:N/A
Clouds:Few CB 023 Hf
Scattered 027 Hf
Expected CloudBase > 1,600 ft AGL from Temp-Dew spread
CeilingNone
Temp27°C (ISA +12)
Dew Point23°C (79% RH)
Heat Index29.6°C
QNH1010 hPa
Density Alt1,778 ft
Elevation-62 ft
Report Wrong Elevation
Raw Report
OINN 240300Z 19004KT 9999 FEW023CB SCT027 27/23 Q1010=

Extra information for OINN:More info

Metar Taf Metar & Taf Last 4 Metars F.Rules Stats Wind Profile Meteogram Temp Stats Airport Information Weather charts Add Link Nearby VenuesMetar ALERT Operation Metar Decoded Social comments